sensor_id;sensor_type;location;lat;lon;timestamp;pressure;altitude;pressure_sealevel;temperature;humidity
82870;BME280;72645;47.136;15.420;2024-01-15T00:01:27;95588.36;;;-5.88;69.72
82870;BME280;72645;47.136;15.420;2024-01-15T00:03:58;95583.58;;;-5.78;69.70
82870;BME280;72645;47.136;15.420;2024-01-15T00:06:30;95578.90;;;-5.69;69.70
82870;BME280;72645;47.136;15.420;2024-01-15T00:09:02;95584.39;;;-5.60;69.54
82870;BME280;72645;47.136;15.420;2024-01-15T00:11:32;95585.09;;;-5.49;69.47
82870;BME280;72645;47.136;15.420;2024-01-15T00:14:03;95574.92;;;-5.51;69.70
82870;BME280;72645;47.136;15.420;2024-01-15T00:16:34;95573.67;;;-5.60;69.12
82870;BME280;72645;47.136;15.420;2024-01-15T00:19:04;95569.65;;;-5.65;69.13
82870;BME280;72645;47.136;15.420;2024-01-15T00:21:36;95562.88;;;-5.69;69.02
82870;BME280;72645;47.136;15.420;2024-01-15T00:24:05;95567.00;;;-5.73;69.19
82870;BME280;72645;47.136;15.420;2024-01-15T00:26:36;95565.38;;;-5.79;69.18
82870;BME280;72645;47.136;15.420;2024-01-15T00:29:07;95561.92;;;-5.84;69.21
82870;BME280;72645;47.136;15.420;2024-01-15T00:31:38;95560.56;;;-5.87;69.60
82870;BME280;72645;47.136;15.420;2024-01-15T00:34:10;95554.65;;;-5.85;69.65
82870;BME280;72645;47.136;15.420;2024-01-15T00:36:41;95553.36;;;-5.87;69.79
82870;BME280;72645;47.136;15.420;2024-01-15T00:39:12;95549.88;;;-5.89;69.69
82870;BME280;72645;47.136;15.420;2024-01-15T00:41:43;95537.91;;;-5.91;69.62
82870;BME280;72645;47.136;15.420;2024-01-15T00:44:14;95542.52;;;-5.92;69.52
82870;BME280;72645;47.136;15.420;2024-01-15T00:46:46;95539.00;;;-5.93;69.93
82870;BME280;72645;47.136;15.420;2024-01-15T00:49:17;95535.94;;;-6.00;69.78
82870;BME280;72645;47.136;15.420;2024-01-15T00:51:49;95530.07;;;-6.06;69.80
82870;BME280;72645;47.136;15.420;2024-01-15T00:54:20;95523.13;;;-6.10;69.74
82870;BME280;72645;47.136;15.420;2024-01-15T00:56:51;95521.29;;;-6.14;70.53
82870;BME280;72645;47.136;15.420;2024-01-15T00:59:22;95524.17;;;-6.18;70.13
82870;BME280;72645;47.136;15.420;2024-01-15T01:01:53;95524.14;;;-6.21;70.33
82870;BME280;72645;47.136;15.420;2024-01-15T01:04:24;95516.81;;;-6.17;70.41
82870;BME280;72645;47.136;15.420;2024-01-15T01:06:53;95506.93;;;-6.10;70.83
82870;BME280;72645;47.136;15.420;2024-01-15T01:09:24;95493.14;;;-6.03;70.42
82870;BME280;72645;47.136;15.420;2024-01-15T01:11:58;95481.39;;;-5.92;70.33
82870;BME280;72645;47.136;15.420;2024-01-15T01:14:28;95468.50;;;-5.86;69.64
82870;BME280;72645;47.136;15.420;2024-01-15T01:16:59;95466.83;;;-5.77;69.45
82870;BME280;72645;47.136;15.420;2024-01-15T01:19:30;95474.88;;;-5.68;69.45
82870;BME280;72645;47.136;15.420;2024-01-15T01:22:01;95474.89;;;-5.58;69.18
82870;BME280;72645;47.136;15.420;2024-01-15T01:24:33;95472.77;;;-5.53;69.39
82870;BME280;72645;47.136;15.420;2024-01-15T01:27:04;95469.77;;;-5.58;69.50
82870;BME280;72645;47.136;15.420;2024-01-15T01:29:35;95462.89;;;-5.64;69.38
82870;BME280;72645;47.136;15.420;2024-01-15T01:32:06;95455.27;;;-5.65;69.31
82870;BME280;72645;47.136;15.420;2024-01-15T01:34:41;95450.91;;;-5.56;69.83
82870;BME280;72645;47.136;15.420;2024-01-15T01:37:14;95447.46;;;-5.52;69.41
82870;BME280;72645;47.136;15.420;2024-01-15T01:39:45;95450.85;;;-5.48;69.24
82870;BME280;72645;47.136;15.420;2024-01-15T01:42:17;95444.06;;;-5.46;69.56
82870;BME280;72645;47.136;15.420;2024-01-15T01:44:48;95438.78;;;-5.49;69.52
82870;BME280;72645;47.136;15.420;2024-01-15T01:47:18;95435.42;;;-5.60;69.54
82870;BME280;72645;47.136;15.420;2024-01-15T01:49:50;95431.66;;;-5.76;69.82
82870;BME280;72645;47.136;15.420;2024-01-15T01:52:21;95435.95;;;-5.86;70.34
82870;BME280;72645;47.136;15.420;2024-01-15T01:54:53;95421.88;;;-5.92;70.84
82870;BME280;72645;47.136;15.420;2024-01-15T01:57:25;95413.29;;;-5.90;70.62
82870;BME280;72645;47.136;15.420;2024-01-15T01:59:56;95408.71;;;-5.91;70.50
82870;BME280;72645;47.136;15.420;2024-01-15T02:02:28;95402.39;;;-5.90;70.36
82870;BME280;72645;47.136;15.420;2024-01-15T02:04:58;95395.92;;;-5.91;71.09
82870;BME280;72645;47.136;15.420;2024-01-15T02:07:29;95395.40;;;-5.89;70.97
82870;BME280;72645;47.136;15.420;2024-01-15T02:10:00;95396.77;;;-5.90;71.16
82870;BME280;72645;47.136;15.420;2024-01-15T02:12:31;95401.66;;;-5.89;71.32
82870;BME280;72645;47.136;15.420;2024-01-15T02:15:03;95396.31;;;-5.88;71.65
82870;BME280;72645;47.136;15.420;2024-01-15T02:17:34;95401.38;;;-5.87;71.45
82870;BME280;72645;47.136;15.420;2024-01-15T02:20:07;95396.43;;;-5.87;71.47
82870;BME280;72645;47.136;15.420;2024-01-15T02:22:38;95395.49;;;-5.89;71.71
82870;BME280;72645;47.136;15.420;2024-01-15T02:25:08;95389.02;;;-5.88;72.01
82870;BME280;72645;47.136;15.420;2024-01-15T02:27:39;95395.56;;;-5.83;71.53
82870;BME280;72645;47.136;15.420;2024-01-15T02:30:09;95396.84;;;-5.75;71.30
82870;BME280;72645;47.136;15.420;2024-01-15T02:32:40;95383.39;;;-5.69;71.41
82870;BME280;72645;47.136;15.420;2024-01-15T02:35:12;95375.55;;;-5.62;71.68
82870;BME280;72645;47.136;15.420;2024-01-15T02:37:41;95370.98;;;-5.56;71.50
82870;BME280;72645;47.136;15.420;2024-01-15T02:40:13;95359.48;;;-5.55;71.80
82870;BME280;72645;47.136;15.420;2024-01-15T02:42:44;95353.73;;;-5.52;71.59
82870;BME280;72645;47.136;15.420;2024-01-15T02:45:15;95358.69;;;-5.40;71.56
82870;BME280;72645;47.136;15.420;2024-01-15T02:47:46;95351.46;;;-5.23;71.45
82870;BME280;72645;47.136;15.420;2024-01-15T02:50:17;95351.25;;;-5.07;70.93
82870;BME280;72645;47.136;15.420;2024-01-15T02:52:48;95351.21;;;-4.91;70.96
82870;BME280;72645;47.136;15.420;2024-01-15T02:55:19;95349.31;;;-4.87;70.63
82870;BME280;72645;47.136;15.420;2024-01-15T02:57:49;95349.58;;;-4.89;70.73
82870;BME280;72645;47.136;15.420;2024-01-15T03:00:20;95349.45;;;-4.90;70.68
82870;BME280;72645;47.136;15.420;2024-01-15T03:02:52;95348.63;;;-4.84;70.91
82870;BME280;72645;47.136;15.420;2024-01-15T03:05:23;95338.57;;;-4.87;70.29
82870;BME280;72645;47.136;15.420;2024-01-15T03:07:52;95341.21;;;-4.86;70.32
82870;BME280;72645;47.136;15.420;2024-01-15T03:10:23;95340.95;;;-4.87;70.44
82870;BME280;72645;47.136;15.420;2024-01-15T03:12:52;95342.23;;;-4.88;70.54
82870;BME280;72645;47.136;15.420;2024-01-15T03:15:23;95340.27;;;-4.96;70.97
82870;BME280;72645;47.136;15.420;2024-01-15T03:17:53;95336.83;;;-5.05;70.76
82870;BME280;72645;47.136;15.420;2024-01-15T03:20:24;95342.09;;;-5.11;70.97
82870;BME280;72645;47.136;15.420;2024-01-15T03:22:53;95343.27;;;-5.13;71.41
82870;BME280;72645;47.136;15.420;2024-01-15T03:25:24;95342.64;;;-5.15;71.57
82870;BME280;72645;47.136;15.420;2024-01-15T03:27:55;95342.05;;;-5.16;71.50
82870;BME280;72645;47.136;15.420;2024-01-15T03:30:24;95342.45;;;-5.21;71.98
82870;BME280;72645;47.136;15.420;2024-01-15T03:32:55;95341.67;;;-5.28;71.83
82870;BME280;72645;47.136;15.420;2024-01-15T03:35:26;95342.91;;;-5.32;71.76
82870;BME280;72645;47.136;15.420;2024-01-15T03:37:59;95334.49;;;-5.34;72.41
82870;BME280;72645;47.136;15.420;2024-01-15T03:40:29;95335.17;;;-5.37;72.35
82870;BME280;72645;47.136;15.420;2024-01-15T03:43:01;95322.02;;;-5.40;72.77
82870;BME280;72645;47.136;15.420;2024-01-15T03:45:32;95329.45;;;-5.42;73.12
82870;BME280;72645;47.136;15.420;2024-01-15T03:48:01;95329.11;;;-5.42;72.80
82870;BME280;72645;47.136;15.420;2024-01-15T03:50:32;95329.08;;;-5.42;73.58
82870;BME280;72645;47.136;15.420;2024-01-15T03:53:01;95323.38;;;-5.43;73.39
82870;BME280;72645;47.136;15.420;2024-01-15T03:55:32;95314.27;;;-5.45;73.57
82870;BME280;72645;47.136;15.420;2024-01-15T03:58:03;95311.92;;;-5.46;73.72
82870;BME280;72645;47.136;15.420;2024-01-15T04:00:33;95312.60;;;-5.42;73.91
82870;BME280;72645;47.136;15.420;2024-01-15T04:03:04;95307.20;;;-5.37;73.75
82870;BME280;72645;47.136;15.420;2024-01-15T04:05:33;95299.70;;;-5.28;73.86
82870;BME280;72645;47.136;15.420;2024-01-15T04:08:05;95301.90;;;-5.18;73.93
82870;BME280;72645;47.136;15.420;2024-01-15T04:10:36;95292.86;;;-5.09;73.86
82870;BME280;72645;47.136;15.420;2024-01-15T04:13:06;95291.07;;;-4.98;73.62
82870;BME280;72645;47.136;15.420;2024-01-15T04:15:37;95286.70;;;-4.87;73.39
82870;BME280;72645;47.136;15.420;2024-01-15T04:18:08;95282.55;;;-4.77;73.38
82870;BME280;72645;47.136;15.420;2024-01-15T04:20:38;95280.93;;;-4.70;73.42
82870;BME280;72645;47.136;15.420;2024-01-15T04:23:09;95282.32;;;-4.65;73.35
82870;BME280;72645;47.136;15.420;2024-01-15T04:25:40;95286.33;;;-4.60;73.34
82870;BME280;72645;47.136;15.420;2024-01-15T04:28:12;95292.29;;;-4.54;73.41
82870;BME280;72645;47.136;15.420;2024-01-15T04:30:43;95295.88;;;-4.51;73.29
82870;BME280;72645;47.136;15.420;2024-01-15T04:33:14;95297.17;;;-4.47;73.30
82870;BME280;72645;47.136;15.420;2024-01-15T04:35:45;95299.00;;;-4.43;72.97
82870;BME280;72645;47.136;15.420;2024-01-15T04:38:16;95306.66;;;-4.43;72.86
82870;BME280;72645;47.136;15.420;2024-01-15T04:40:47;95310.42;;;-4.46;72.78
82870;BME280;72645;47.136;15.420;2024-01-15T04:43:16;95310.37;;;-4.51;73.07
82870;BME280;72645;47.136;15.420;2024-01-15T04:45:47;95308.17;;;-4.60;73.04
82870;BME280;72645;47.136;15.420;2024-01-15T04:48:17;95308.33;;;-4.66;73.58
82870;BME280;72645;47.136;15.420;2024-01-15T04:50:48;95308.98;;;-4.68;73.31
82870;BME280;72645;47.136;15.420;2024-01-15T04:53:17;95302.58;;;-4.69;73.59
82870;BME280;72645;47.136;15.420;2024-01-15T04:55:48;95307.39;;;-4.70;73.51
82870;BME280;72645;47.136;15.420;2024-01-15T04:58:19;95308.64;;;-4.71;73.62
82870;BME280;72645;47.136;15.420;2024-01-15T05:00:50;95314.73;;;-4.70;73.82
82870;BME280;72645;47.136;15.420;2024-01-15T05:03:21;95311.98;;;-4.70;73.93
82870;BME280;72645;47.136;15.420;2024-01-15T05:05:53;95312.29;;;-4.66;74.09
82870;BME280;72645;47.136;15.420;2024-01-15T05:08:24;95318.38;;;-4.59;73.80
82870;BME280;72645;47.136;15.420;2024-01-15T05:10:55;95310.35;;;-4.50;73.80
82870;BME280;72645;47.136;15.420;2024-01-15T05:13:26;95307.52;;;-4.43;73.38
82870;BME280;72645;47.136;15.420;2024-01-15T05:15:57;95312.86;;;-4.35;73.57
82870;BME280;72645;47.136;15.420;2024-01-15T05:18:28;95313.97;;;-4.27;73.47
82870;BME280;72645;47.136;15.420;2024-01-15T05:21:00;95309.61;;;-4.23;73.28
82870;BME280;72645;47.136;15.420;2024-01-15T05:23:30;95313.98;;;-4.19;73.32
82870;BME280;72645;47.136;15.420;2024-01-15T05:26:01;95322.92;;;-4.16;73.30
82870;BME280;72645;47.136;15.420;2024-01-15T05:28:32;95317.52;;;-4.18;73.22
82870;BME280;72645;47.136;15.420;2024-01-15T05:31:03;95320.78;;;-4.18;72.94
82870;BME280;72645;47.136;15.420;2024-01-15T05:33:34;95319.77;;;-4.18;73.09
82870;BME280;72645;47.136;15.420;2024-01-15T05:36:07;95321.39;;;-4.16;73.10
82870;BME280;72645;47.136;15.420;2024-01-15T05:38:38;95316.04;;;-4.19;72.79
82870;BME280;72645;47.136;15.420;2024-01-15T05:41:09;95318.04;;;-4.24;72.77
82870;BME280;72645;47.136;15.420;2024-01-15T05:43:40;95320.89;;;-4.28;72.97
82870;BME280;72645;47.136;15.420;2024-01-15T05:46:09;95318.91;;;-4.33;72.95
82870;BME280;72645;47.136;15.420;2024-01-15T05:48:40;95323.20;;;-4.39;73.02
82870;BME280;72645;47.136;15.420;2024-01-15T05:51:11;95327.08;;;-4.44;73.19
82870;BME280;72645;47.136;15.420;2024-01-15T05:53:41;95328.59;;;-4.50;73.13
82870;BME280;72645;47.136;15.420;2024-01-15T05:56:13;95324.26;;;-4.57;73.01
82870;BME280;72645;47.136;15.420;2024-01-15T05:58:43;95326.48;;;-4.63;73.06
82870;BME280;72645;47.136;15.420;2024-01-15T06:01:14;95326.39;;;-4.68;73.13
82870;BME280;72645;47.136;15.420;2024-01-15T06:03:45;95327.05;;;-4.73;73.14
82870;BME280;72645;47.136;15.420;2024-01-15T06:06:14;95321.68;;;-4.78;73.01
82870;BME280;72645;47.136;15.420;2024-01-15T06:08:45;95320.52;;;-4.82;73.23
82870;BME280;72645;47.136;15.420;2024-01-15T06:11:16;95318.13;;;-4.85;73.59
82870;BME280;72645;47.136;15.420;2024-01-15T06:13:47;95321.22;;;-4.85;73.62
82870;BME280;72645;47.136;15.420;2024-01-15T06:16:18;95318.40;;;-4.84;73.46
82870;BME280;72645;47.136;15.420;2024-01-15T06:18:50;95323.17;;;-4.78;73.60
82870;BME280;72645;47.136;15.420;2024-01-15T06:21:21;95322.44;;;-4.70;73.73
82870;BME280;72645;47.136;15.420;2024-01-15T06:23:52;95322.77;;;-4.58;73.97
82870;BME280;72645;47.136;15.420;2024-01-15T06:26:25;95323.38;;;-4.45;74.16
82870;BME280;72645;47.136;15.420;2024-01-15T06:28:56;95320.61;;;-4.32;73.64
82870;BME280;72645;47.136;15.420;2024-01-15T06:31:27;95320.43;;;-4.21;73.85
82870;BME280;72645;47.136;15.420;2024-01-15T06:33:59;95315.43;;;-4.14;73.36
82870;BME280;72645;47.136;15.420;2024-01-15T06:36:30;95316.74;;;-4.10;73.11
82870;BME280;72645;47.136;15.420;2024-01-15T06:39:00;95323.14;;;-4.12;72.83
82870;BME280;72645;47.136;15.420;2024-01-15T06:41:31;95330.36;;;-4.12;72.88
82870;BME280;72645;47.136;15.420;2024-01-15T06:44:02;95342.73;;;-4.16;72.52
82870;BME280;72645;47.136;15.420;2024-01-15T06:46:31;95347.40;;;-4.20;72.95
82870;BME280;72645;47.136;15.420;2024-01-15T06:49:02;95350.80;;;-4.23;73.92
82870;BME280;72645;47.136;15.420;2024-01-15T06:51:31;95343.46;;;-4.14;77.89
82870;BME280;72645;47.136;15.420;2024-01-15T06:54:02;95354.47;;;-4.16;74.66
82870;BME280;72645;47.136;15.420;2024-01-15T06:56:33;95365.20;;;-4.23;73.61
82870;BME280;72645;47.136;15.420;2024-01-15T06:59:04;95367.50;;;-4.34;73.05
82870;BME280;72645;47.136;15.420;2024-01-15T07:01:35;95368.64;;;-4.48;73.02
82870;BME280;72645;47.136;15.420;2024-01-15T07:04:05;95370.66;;;-4.54;73.30
82870;BME280;72645;47.136;15.420;2024-01-15T07:06:36;95375.87;;;-4.58;73.12
82870;BME280;72645;47.136;15.420;2024-01-15T07:09:07;95371.47;;;-4.65;73.14
82870;BME280;72645;47.136;15.420;2024-01-15T07:11:38;95374.88;;;-4.68;73.57
82870;BME280;72645;47.136;15.420;2024-01-15T07:14:14;95377.38;;;-4.70;73.11
82870;BME280;72645;47.136;15.420;2024-01-15T07:16:45;95381.50;;;-4.70;73.56
82870;BME280;72645;47.136;15.420;2024-01-15T07:19:17;95389.79;;;-4.63;73.68
82870;BME280;72645;47.136;15.420;2024-01-15T07:21:49;95395.70;;;-4.52;73.77
82870;BME280;72645;47.136;15.420;2024-01-15T07:24:22;95398.36;;;-4.39;73.75
82870;BME280;72645;47.136;15.420;2024-01-15T07:26:53;95404.36;;;-4.24;73.46
82870;BME280;72645;47.136;15.420;2024-01-15T07:29:23;95414.20;;;-4.14;72.86
82870;BME280;72645;47.136;15.420;2024-01-15T07:31:54;95419.83;;;-4.08;72.77
82870;BME280;72645;47.136;15.420;2024-01-15T07:34:25;95415.02;;;-4.05;72.65
82870;BME280;72645;47.136;15.420;2024-01-15T07:36:56;95420.59;;;-3.69;72.99
82870;BME280;72645;47.136;15.420;2024-01-15T07:39:27;95423.98;;;-3.30;72.64
82870;BME280;72645;47.136;15.420;2024-01-15T07:42:00;95418.48;;;-3.25;72.24
82870;BME280;72645;47.136;15.420;2024-01-15T07:44:29;95415.44;;;-3.25;72.17
82870;BME280;72645;47.136;15.420;2024-01-15T07:47:00;95417.15;;;-3.28;72.30
82870;BME280;72645;47.136;15.420;2024-01-15T07:49:31;95425.39;;;-3.26;72.31
82870;BME280;72645;47.136;15.420;2024-01-15T07:52:02;95428.41;;;-3.27;72.68
82870;BME280;72645;47.136;15.420;2024-01-15T07:54:34;95427.89;;;-3.27;72.93
82870;BME280;72645;47.136;15.420;2024-01-15T07:57:04;95427.20;;;-3.22;72.90
82870;BME280;72645;47.136;15.420;2024-01-15T07:59:33;95428.05;;;-3.13;73.44
82870;BME280;72645;47.136;15.420;2024-01-15T08:02:05;95426.11;;;-3.04;73.59
82870;BME280;72645;47.136;15.420;2024-01-15T08:04:34;95425.85;;;-2.97;73.26
82870;BME280;72645;47.136;15.420;2024-01-15T08:07:07;95434.02;;;-2.93;72.78
82870;BME280;72645;47.136;15.420;2024-01-15T08:09:38;95439.37;;;-2.88;72.42
82870;BME280;72645;47.136;15.420;2024-01-15T08:12:09;95439.19;;;-2.82;72.75
82870;BME280;72645;47.136;15.420;2024-01-15T08:14:41;95444.77;;;-2.70;72.46
82870;BME280;72645;47.136;15.420;2024-01-15T08:17:10;95442.76;;;-2.57;72.30
82870;BME280;72645;47.136;15.420;2024-01-15T08:19:41;95435.47;;;-2.45;72.34
82870;BME280;72645;47.136;15.420;2024-01-15T08:22:13;95442.84;;;-2.34;72.22
82870;BME280;72645;47.136;15.420;2024-01-15T08:24:43;95448.46;;;-2.28;71.60
82870;BME280;72645;47.136;15.420;2024-01-15T08:27:15;95450.79;;;-2.25;71.81
82870;BME280;72645;47.136;15.420;2024-01-15T08:29:46;95451.08;;;-2.18;71.65
82870;BME280;72645;47.136;15.420;2024-01-15T08:32:15;95448.26;;;-2.15;71.25
82870;BME280;72645;47.136;15.420;2024-01-15T08:34:46;95446.59;;;-2.07;71.40
82870;BME280;72645;47.136;15.420;2024-01-15T08:37:19;95446.16;;;-2.00;71.32
82870;BME280;72645;47.136;15.420;2024-01-15T08:39:50;95443.26;;;-1.93;71.40
82870;BME280;72645;47.136;15.420;2024-01-15T08:42:21;95448.15;;;-1.79;71.28
82870;BME280;72645;47.136;15.420;2024-01-15T08:44:52;95451.45;;;-1.69;70.76
82870;BME280;72645;47.136;15.420;2024-01-15T08:47:21;95450.75;;;-1.54;70.44
82870;BME280;72645;47.136;15.420;2024-01-15T08:49:52;95448.43;;;-1.36;70.39
82870;BME280;72645;47.136;15.420;2024-01-15T08:52:23;95451.47;;;-1.15;70.60
82870;BME280;72645;47.136;15.420;2024-01-15T08:54:55;95464.21;;;-0.93;69.99
82870;BME280;72645;47.136;15.420;2024-01-15T08:57:26;95467.54;;;-0.74;69.70
82870;BME280;72645;47.136;15.420;2024-01-15T08:59:57;95469.88;;;-0.54;68.91
82870;BME280;72645;47.136;15.420;2024-01-15T09:02:28;95465.67;;;-0.36;68.78
82870;BME280;72645;47.136;15.420;2024-01-15T09:04:59;95471.01;;;-0.17;67.99
82870;BME280;72645;47.136;15.420;2024-01-15T09:07:30;95477.71;;;0.03;67.36
82870;BME280;72645;47.136;15.420;2024-01-15T09:10:01;95473.96;;;0.24;68.48
82870;BME280;72645;47.136;15.420;2024-01-15T09:12:32;95471.92;;;0.51;67.68
82870;BME280;72645;47.136;15.420;2024-01-15T09:15:04;95474.41;;;0.82;67.05
82870;BME280;72645;47.136;15.420;2024-01-15T09:17:35;95471.23;;;1.13;66.12
82870;BME280;72645;47.136;15.420;2024-01-15T09:20:08;95472.48;;;1.48;65.09
82870;BME280;72645;47.136;15.420;2024-01-15T09:22:40;95475.61;;;1.72;64.18
82870;BME280;72645;47.136;15.420;2024-01-15T09:25:12;95472.56;;;1.95;63.96
82870;BME280;72645;47.136;15.420;2024-01-15T09:27:43;95471.29;;;2.21;63.80
82870;BME280;72645;47.136;15.420;2024-01-15T09:30:15;95469.39;;;2.53;63.48
82870;BME280;72645;47.136;15.420;2024-01-15T09:32:46;95465.74;;;2.82;63.25
82870;BME280;72645;47.136;15.420;2024-01-15T09:35:18;95467.23;;;3.13;63.79
82870;BME280;72645;47.136;15.420;2024-01-15T09:37:53;95462.49;;;3.35;61.94
82870;BME280;72645;47.136;15.420;2024-01-15T09:40:25;95462.34;;;3.55;60.57
82870;BME280;72645;47.136;15.420;2024-01-15T09:43:02;95450.69;;;3.70;60.14
82870;BME280;72645;47.136;15.420;2024-01-15T09:45:33;95447.02;;;3.96;59.56
82870;BME280;72645;47.136;15.420;2024-01-15T09:48:06;95443.59;;;4.19;58.86
82870;BME280;72645;47.136;15.420;2024-01-15T09:50:37;95442.77;;;4.42;58.84
82870;BME280;72645;47.136;15.420;2024-01-15T09:53:08;95437.22;;;4.63;58.31
82870;BME280;72645;47.136;15.420;2024-01-15T09:55:39;95437.81;;;4.85;57.82
82870;BME280;72645;47.136;15.420;2024-01-15T09:58:11;95433.61;;;5.06;56.97
82870;BME280;72645;47.136;15.420;2024-01-15T10:00:43;95425.69;;;5.23;56.49
82870;BME280;72645;47.136;15.420;2024-01-15T10:03:15;95419.64;;;5.40;56.06
82870;BME280;72645;47.136;15.420;2024-01-15T10:05:46;95415.08;;;5.46;55.80
82870;BME280;72645;47.136;15.420;2024-01-15T10:08:17;95408.86;;;5.51;55.79
82870;BME280;72645;47.136;15.420;2024-01-15T10:10:49;95404.02;;;5.58;54.97
82870;BME280;72645;47.136;15.420;2024-01-15T10:13:20;95406.46;;;5.69;54.58
82870;BME280;72645;47.136;15.420;2024-01-15T10:15:52;95396.45;;;5.86;53.88
82870;BME280;72645;47.136;15.420;2024-01-15T10:18:23;95389.30;;;6.05;53.24
82870;BME280;72645;47.136;15.420;2024-01-15T10:20:55;95387.20;;;6.23;52.75
82870;BME280;72645;47.136;15.420;2024-01-15T10:23:27;95382.14;;;6.44;53.56
82870;BME280;72645;47.136;15.420;2024-01-15T10:25:59;95376.28;;;6.68;52.82
82870;BME280;72645;47.136;15.420;2024-01-15T10:28:31;95373.52;;;6.85;52.81
82870;BME280;72645;47.136;15.420;2024-01-15T10:31:02;95372.00;;;6.98;53.38
82870;BME280;72645;47.136;15.420;2024-01-15T10:33:33;95369.96;;;7.11;53.06
82870;BME280;72645;47.136;15.420;2024-01-15T10:36:10;95366.84;;;7.25;52.27
82870;BME280;72645;47.136;15.420;2024-01-15T10:38:43;95366.05;;;7.43;51.90
82870;BME280;72645;47.136;15.420;2024-01-15T10:41:14;95365.73;;;7.56;51.39
82870;BME280;72645;47.136;15.420;2024-01-15T10:43:45;95363.73;;;7.67;51.54
82870;BME280;72645;47.136;15.420;2024-01-15T10:46:16;95360.30;;;7.75;51.34
82870;BME280;72645;47.136;15.420;2024-01-15T10:48:48;95352.85;;;7.83;50.64
82870;BME280;72645;47.136;15.420;2024-01-15T10:51:19;95352.31;;;7.95;50.64
82870;BME280;72645;47.136;15.420;2024-01-15T10:53:50;95350.14;;;8.02;50.43
82870;BME280;72645;47.136;15.420;2024-01-15T10:56:23;95344.16;;;8.10;50.31
82870;BME280;72645;47.136;15.420;2024-01-15T10:58:55;95343.15;;;8.20;49.72
82870;BME280;72645;47.136;15.420;2024-01-15T11:01:29;95337.61;;;8.34;48.74
82870;BME280;72645;47.136;15.420;2024-01-15T11:04:01;95333.86;;;8.50;46.98
82870;BME280;72645;47.136;15.420;2024-01-15T11:06:42;95333.07;;;8.55;46.52
82870;BME280;72645;47.136;15.420;2024-01-15T11:09:14;95324.95;;;8.57;44.52
82870;BME280;72645;47.136;15.420;2024-01-15T11:11:48;95328.70;;;8.60;43.98
82870;BME280;72645;47.136;15.420;2024-01-15T11:14:40;95326.04;;;8.62;43.69
82870;BME280;72645;47.136;15.420;2024-01-15T11:17:14;95327.21;;;8.58;42.59
82870;BME280;72645;47.136;15.420;2024-01-15T11:19:47;95326.67;;;8.52;43.53
82870;BME280;72645;47.136;15.420;2024-01-15T11:22:50;95324.64;;;8.46;42.85
82870;BME280;72645;47.136;15.420;2024-01-15T11:25:21;95326.92;;;8.49;42.90
82870;BME280;72645;47.136;15.420;2024-01-15T11:27:53;95322.35;;;8.56;43.33
82870;BME280;72645;47.136;15.420;2024-01-15T11:30:27;95319.54;;;8.64;43.17
82870;BME280;72645;47.136;15.420;2024-01-15T11:32:58;95321.73;;;8.74;42.38
82870;BME280;72645;47.136;15.420;2024-01-15T11:35:49;95319.86;;;8.76;42.33
82870;BME280;72645;47.136;15.420;2024-01-15T11:38:30;95325.20;;;8.72;41.81
82870;BME280;72645;47.136;15.420;2024-01-15T11:41:01;95325.42;;;8.68;42.14
82870;BME280;72645;47.136;15.420;2024-01-15T11:43:44;95323.79;;;8.60;42.10
82870;BME280;72645;47.136;15.420;2024-01-15T11:46:18;95320.27;;;8.53;42.65
82870;BME280;72645;47.136;15.420;2024-01-15T11:48:54;95317.38;;;8.49;43.02
82870;BME280;72645;47.136;15.420;2024-01-15T11:51:32;95314.04;;;8.48;42.49
82870;BME280;72645;47.136;15.420;2024-01-15T11:54:06;95311.16;;;8.51;42.45
82870;BME280;72645;47.136;15.420;2024-01-15T11:56:41;95308.61;;;8.57;42.50
82870;BME280;72645;47.136;15.420;2024-01-15T11:59:12;95309.24;;;8.58;42.17
82870;BME280;72645;47.136;15.420;2024-01-15T12:01:43;95305.38;;;8.50;41.65
82870;BME280;72645;47.136;15.420;2024-01-15T12:04:15;95306.02;;;8.38;41.70
82870;BME280;72645;47.136;15.420;2024-01-15T12:06:49;95300.63;;;8.30;41.75
82870;BME280;72645;47.136;15.420;2024-01-15T12:09:22;95294.61;;;8.26;41.86
82870;BME280;72645;47.136;15.420;2024-01-15T12:12:01;95289.67;;;8.26;41.83
82870;BME280;72645;47.136;15.420;2024-01-15T12:14:35;95286.31;;;8.30;41.55
82870;BME280;72645;47.136;15.420;2024-01-15T12:17:06;95282.05;;;8.29;40.93
82870;BME280;72645;47.136;15.420;2024-01-15T12:19:37;95276.48;;;8.26;41.28
82870;BME280;72645;47.136;15.420;2024-01-15T12:22:08;95270.11;;;8.25;41.39
82870;BME280;72645;47.136;15.420;2024-01-15T12:24:40;95268.62;;;8.26;41.36
82870;BME280;72645;47.136;15.420;2024-01-15T12:27:11;95267.52;;;8.26;41.65
82870;BME280;72645;47.136;15.420;2024-01-15T12:29:42;95268.63;;;8.27;41.57
82870;BME280;72645;47.136;15.420;2024-01-15T12:32:14;95271.70;;;8.30;40.88
82870;BME280;72645;47.136;15.420;2024-01-15T12:34:46;95272.75;;;8.30;40.99
82870;BME280;72645;47.136;15.420;2024-01-15T12:37:19;95276.70;;;8.30;40.46
82870;BME280;72645;47.136;15.420;2024-01-15T12:39:51;95273.44;;;8.30;40.44
82870;BME280;72645;47.136;15.420;2024-01-15T12:42:24;95275.39;;;8.31;40.85
82870;BME280;72645;47.136;15.420;2024-01-15T12:44:56;95276.70;;;8.35;40.45
82870;BME280;72645;47.136;15.420;2024-01-15T12:47:27;95274.77;;;8.40;40.59
82870;BME280;72645;47.136;15.420;2024-01-15T12:49:59;95271.05;;;8.40;40.12
82870;BME280;72645;47.136;15.420;2024-01-15T12:52:45;95270.85;;;8.36;40.19
82870;BME280;72645;47.136;15.420;2024-01-15T12:55:17;95271.63;;;8.38;40.33
82870;BME280;72645;47.136;15.420;2024-01-15T12:57:48;95265.95;;;8.46;40.81
82870;BME280;72645;47.136;15.420;2024-01-15T13:00:22;95260.70;;;8.47;40.84
82870;BME280;72645;47.136;15.420;2024-01-15T13:02:55;95262.91;;;8.38;40.71
82870;BME280;72645;47.136;15.420;2024-01-15T13:05:27;95263.91;;;8.29;40.96
82870;BME280;72645;47.136;15.420;2024-01-15T13:08:00;95259.75;;;8.22;40.73
82870;BME280;72645;47.136;15.420;2024-01-15T13:10:31;95255.38;;;8.19;40.36
82870;BME280;72645;47.136;15.420;2024-01-15T13:13:02;95250.27;;;8.16;40.14
82870;BME280;72645;47.136;15.420;2024-01-15T13:15:34;95252.96;;;8.12;40.19